BAW4CD EKCH-EGCC
Flight info
| Callsign | BAW4CD |
|---|---|
| Flight time | 1h 29m |
| Altitude | 38000 |
| Route | ODDON DCT LESRA DCT ROPAL DCT ERDOW UL975 LIBSO |
| Aircraft | A319/M-SDE3FGHIRWY/LB1 |
Departure
| Time | 2026-04-26 11:11 |
|---|---|
| Airport | Copenhagen Kastrup Airport (EKCH) |
Arrival
| Time | 2026-04-26 12:41 |
|---|---|
| Airport | Manchester Airport (EGCC) |
| Time | Latitude | Longitude | Altitude | Speed | Heading |
|---|---|---|---|---|---|
| 2026-04-26 10:49 | 55.62698 | 12.65081 | 20 ft | 0 kts | 290° |
| 2026-04-26 11:01 | 55.62698 | 12.65082 | 20 ft | 1 kts | 290° |
| 2026-04-26 11:01 | 55.62689 | 12.65124 | 19 ft | 3 kts | 290° |
| 2026-04-26 11:01 | 55.62685 | 12.65140 | 19 ft | 0 kts | 298° |
| 2026-04-26 11:05 | 55.62686 | 12.65126 | 19 ft | 2 kts | 243° |
| 2026-04-26 11:05 | 55.62656 | 12.65150 | 19 ft | 6 kts | 142° |
| 2026-04-26 11:05 | 55.62606 | 12.65194 | 18 ft | 9 kts | 177° |
| 2026-04-26 11:06 | 55.62532 | 12.65198 | 18 ft | 11 kts | 178° |
| 2026-04-26 11:06 | 55.62476 | 12.65200 | 18 ft | 12 kts | 179° |
| 2026-04-26 11:06 | 55.62354 | 12.65206 | 18 ft | 14 kts | 179° |
| 2026-04-26 11:06 | 55.62252 | 12.65198 | 17 ft | 15 kts | 182° |
| 2026-04-26 11:07 | 55.62151 | 12.65113 | 15 ft | 17 kts | 211° |
| 2026-04-26 11:07 | 55.62046 | 12.64994 | 15 ft | 18 kts | 213° |
| 2026-04-26 11:07 | 55.61934 | 12.64868 | 15 ft | 19 kts | 214° |
| 2026-04-26 11:07 | 55.61821 | 12.64735 | 15 ft | 20 kts | 213° |
| 2026-04-26 11:08 | 55.61700 | 12.64596 | 15 ft | 20 kts | 213° |
| 2026-04-26 11:08 | 55.61578 | 12.64453 | 15 ft | 21 kts | 213° |
| 2026-04-26 11:08 | 55.61453 | 12.64311 | 16 ft | 21 kts | 214° |
| 2026-04-26 11:08 | 55.61325 | 12.64164 | 15 ft | 22 kts | 213° |
| 2026-04-26 11:09 | 55.61198 | 12.64016 | 16 ft | 22 kts | 214° |
| 2026-04-26 11:09 | 55.61066 | 12.63865 | 16 ft | 22 kts | 213° |
| 2026-04-26 11:09 | 55.60935 | 12.63715 | 17 ft | 22 kts | 213° |
| 2026-04-26 11:09 | 55.60815 | 12.63589 | 15 ft | 17 kts | 181° |
| 2026-04-26 11:10 | 55.60730 | 12.63704 | 15 ft | 15 kts | 129° |
| 2026-04-26 11:10 | 55.60669 | 12.63832 | 15 ft | 7 kts | 109° |
| 2026-04-26 11:10 | 55.60679 | 12.63874 | 15 ft | 0 kts | 41° |
| 2026-04-26 11:11 | 55.60778 | 12.64024 | 15 ft | 52 kts | 41° |
| 2026-04-26 11:11 | 55.61230 | 12.64722 | 15 ft | 118 kts | 41° |
| 2026-04-26 11:11 | 55.61968 | 12.65868 | 205 ft | 152 kts | 40° |
| 2026-04-26 11:11 | 55.62723 | 12.67057 | 906 ft | 146 kts | 39° |
| 2026-04-26 11:12 | 55.63468 | 12.68239 | 1568 ft | 146 kts | 37° |
| 2026-04-26 11:12 | 55.64218 | 12.69432 | 2134 ft | 151 kts | 37° |
| 2026-04-26 11:12 | 55.65051 | 12.70694 | 2577 ft | 166 kts | 32° |
| 2026-04-26 11:12 | 55.66156 | 12.71380 | 3022 ft | 177 kts | 357° |
| 2026-04-26 11:13 | 55.67344 | 12.70650 | 3427 ft | 196 kts | 320° |
| 2026-04-26 11:13 | 55.68034 | 12.68508 | 3916 ft | 221 kts | 280° |
| 2026-04-26 11:13 | 55.67979 | 12.65657 | 4498 ft | 241 kts | 269° |
| 2026-04-26 11:13 | 55.67838 | 12.62636 | 5121 ft | 257 kts | 269° |
| 2026-04-26 11:14 | 55.67699 | 12.59461 | 6003 ft | 263 kts | 269° |
| 2026-04-26 11:14 | 55.67561 | 12.56259 | 6929 ft | 266 kts | 270° |
| 2026-04-26 11:14 | 55.67420 | 12.53007 | 7862 ft | 269 kts | 270° |
| 2026-04-26 11:14 | 55.67325 | 12.50815 | 8475 ft | 270 kts | 271° |
| 2026-04-26 11:15 | 55.67136 | 12.46442 | 9651 ft | 272 kts | 271° |
| 2026-04-26 11:15 | 55.66992 | 12.43094 | 10500 ft | 274 kts | 272° |
| 2026-04-26 11:15 | 55.66848 | 12.39699 | 11089 ft | 285 kts | 272° |
| 2026-04-26 11:15 | 55.66701 | 12.36108 | 11429 ft | 302 kts | 272° |
| 2026-04-26 11:16 | 55.66541 | 12.32292 | 11753 ft | 320 kts | 271° |
| 2026-04-26 11:16 | 55.66369 | 12.28307 | 12107 ft | 336 kts | 271° |
| 2026-04-26 11:16 | 55.66185 | 12.24155 | 12753 ft | 341 kts | 271° |
| 2026-04-26 11:16 | 55.65996 | 12.19994 | 13453 ft | 344 kts | 271° |
| 2026-04-26 11:17 | 55.65802 | 12.15793 | 14122 ft | 347 kts | 271° |
| 2026-04-26 11:17 | 55.65610 | 12.11556 | 14807 ft | 350 kts | 271° |
| 2026-04-26 11:17 | 55.65412 | 12.07243 | 15500 ft | 351 kts | 271° |
| 2026-04-26 11:17 | 55.65216 | 12.02964 | 16175 ft | 354 kts | 271° |
| 2026-04-26 11:18 | 55.65013 | 11.98601 | 16804 ft | 357 kts | 272° |
| 2026-04-26 11:18 | 55.64811 | 11.94266 | 17420 ft | 359 kts | 272° |
| 2026-04-26 11:18 | 55.64607 | 11.89889 | 17964 ft | 363 kts | 271° |
| 2026-04-26 11:18 | 55.64395 | 11.85392 | 18574 ft | 365 kts | 271° |
| 2026-04-26 11:19 | 55.64185 | 11.80962 | 19125 ft | 368 kts | 271° |
| 2026-04-26 11:19 | 55.64006 | 11.76468 | 19696 ft | 369 kts | 272° |
| 2026-04-26 11:19 | 55.63863 | 11.71914 | 20258 ft | 371 kts | 273° |
| 2026-04-26 11:19 | 55.63724 | 11.67380 | 20788 ft | 374 kts | 273° |
| 2026-04-26 11:20 | 55.63582 | 11.62801 | 21296 ft | 377 kts | 272° |
| 2026-04-26 11:20 | 55.63481 | 11.59685 | 21638 ft | 378 kts | 272° |
| 2026-04-26 11:20 | 55.63277 | 11.53501 | 22299 ft | 381 kts | 272° |
| 2026-04-26 11:20 | 55.63123 | 11.48855 | 22752 ft | 384 kts | 272° |
| 2026-04-26 11:21 | 55.62963 | 11.44158 | 23193 ft | 387 kts | 272° |
| 2026-04-26 11:21 | 55.62799 | 11.39388 | 23650 ft | 389 kts | 272° |
| 2026-04-26 11:21 | 55.62633 | 11.34636 | 24096 ft | 391 kts | 271° |
| 2026-04-26 11:21 | 55.62464 | 11.29835 | 24527 ft | 394 kts | 271° |
| 2026-04-26 11:22 | 55.62290 | 11.25013 | 24946 ft | 396 kts | 271° |
| 2026-04-26 11:22 | 55.62113 | 11.20138 | 25368 ft | 398 kts | 271° |
| 2026-04-26 11:22 | 55.61936 | 11.15305 | 25792 ft | 400 kts | 271° |
| 2026-04-26 11:22 | 55.61754 | 11.10359 | 26181 ft | 403 kts | 270° |
| 2026-04-26 11:23 | 55.61572 | 11.05454 | 26571 ft | 405 kts | 270° |
| 2026-04-26 11:23 | 55.61384 | 11.00507 | 26967 ft | 407 kts | 270° |
| 2026-04-26 11:23 | 55.61191 | 10.95478 | 27352 ft | 410 kts | 270° |
| 2026-04-26 11:23 | 55.60995 | 10.90462 | 27744 ft | 411 kts | 270° |
| 2026-04-26 11:24 | 55.60799 | 10.85432 | 28128 ft | 413 kts | 270° |
| 2026-04-26 11:24 | 55.60600 | 10.80367 | 28483 ft | 415 kts | 270° |
| 2026-04-26 11:24 | 55.60400 | 10.75345 | 28904 ft | 415 kts | 270° |
| 2026-04-26 11:24 | 55.60194 | 10.70279 | 29390 ft | 414 kts | 270° |
| 2026-04-26 11:25 | 55.59987 | 10.65222 | 29907 ft | 411 kts | 270° |
| 2026-04-26 11:25 | 55.59781 | 10.60226 | 30377 ft | 410 kts | 270° |
| 2026-04-26 11:25 | 55.59573 | 10.55215 | 30851 ft | 408 kts | 269° |
| 2026-04-26 11:25 | 55.59365 | 10.50254 | 31261 ft | 407 kts | 269° |
| 2026-04-26 11:26 | 55.59158 | 10.45351 | 31656 ft | 406 kts | 269° |
| 2026-04-26 11:26 | 55.58944 | 10.40369 | 32071 ft | 405 kts | 269° |
| 2026-04-26 11:26 | 55.58731 | 10.35438 | 32470 ft | 403 kts | 269° |
| 2026-04-26 11:26 | 55.58519 | 10.30559 | 32861 ft | 402 kts | 268° |
| 2026-04-26 11:27 | 55.58305 | 10.25682 | 33240 ft | 401 kts | 268° |
| 2026-04-26 11:27 | 55.58087 | 10.20791 | 33591 ft | 401 kts | 268° |
| 2026-04-26 11:27 | 55.57866 | 10.15869 | 33944 ft | 400 kts | 268° |
| 2026-04-26 11:27 | 55.57645 | 10.10976 | 34284 ft | 400 kts | 268° |
| 2026-04-26 11:28 | 55.57424 | 10.06112 | 34624 ft | 399 kts | 268° |
| 2026-04-26 11:28 | 55.57200 | 10.01258 | 34939 ft | 398 kts | 268° |
| 2026-04-26 11:28 | 55.56975 | 9.96400 | 35209 ft | 398 kts | 268° |
| 2026-04-26 11:28 | 55.56752 | 9.91598 | 35460 ft | 398 kts | 268° |
| 2026-04-26 11:29 | 55.56523 | 9.86748 | 35716 ft | 398 kts | 268° |
| 2026-04-26 11:29 | 55.56290 | 9.81856 | 35960 ft | 398 kts | 268° |
| 2026-04-26 11:29 | 55.56060 | 9.77068 | 36191 ft | 398 kts | 268° |
| 2026-04-26 11:29 | 55.55825 | 9.72223 | 36402 ft | 398 kts | 268° |
| 2026-04-26 11:30 | 55.55586 | 9.67330 | 36599 ft | 399 kts | 268° |
| 2026-04-26 11:30 | 55.55429 | 9.64130 | 36714 ft | 400 kts | 268° |
| 2026-04-26 11:30 | 55.55104 | 9.57579 | 36985 ft | 401 kts | 268° |
| 2026-04-26 11:30 | 55.54858 | 9.52673 | 37184 ft | 403 kts | 268° |
| 2026-04-26 11:31 | 55.54612 | 9.47784 | 37372 ft | 404 kts | 268° |
| 2026-04-26 11:31 | 55.54363 | 9.42862 | 37545 ft | 405 kts | 267° |
| 2026-04-26 11:31 | 55.54111 | 9.37934 | 37701 ft | 406 kts | 268° |
| 2026-04-26 11:31 | 55.53855 | 9.32977 | 37850 ft | 408 kts | 266° |
| 2026-04-26 11:32 | 55.53597 | 9.28042 | 37998 ft | 409 kts | 266° |
| 2026-04-26 11:32 | 55.53336 | 9.23044 | 38155 ft | 410 kts | 266° |
| 2026-04-26 11:32 | 55.53071 | 9.18048 | 38301 ft | 411 kts | 266° |
| 2026-04-26 11:32 | 55.52805 | 9.13043 | 38302 ft | 412 kts | 266° |
| 2026-04-26 11:33 | 55.52265 | 9.03028 | 38295 ft | 412 kts | 266° |
| 2026-04-26 11:33 | 55.51718 | 8.93047 | 38293 ft | 412 kts | 266° |
| 2026-04-26 11:34 | 55.51159 | 8.83001 | 38308 ft | 412 kts | 266° |
| 2026-04-26 11:34 | 55.50594 | 8.72972 | 38314 ft | 412 kts | 266° |
| 2026-04-26 11:35 | 55.50023 | 8.62994 | 38315 ft | 413 kts | 266° |
| 2026-04-26 11:35 | 55.49538 | 8.54632 | 38318 ft | 413 kts | 266° |
| 2026-04-26 11:36 | 55.48847 | 8.42895 | 38321 ft | 414 kts | 266° |
| 2026-04-26 11:36 | 55.48249 | 8.32876 | 38325 ft | 414 kts | 265° |
| 2026-04-26 11:37 | 55.47641 | 8.22850 | 38329 ft | 414 kts | 265° |
| 2026-04-26 11:37 | 55.47023 | 8.12778 | 38333 ft | 414 kts | 265° |
| 2026-04-26 11:38 | 55.46397 | 8.02730 | 38334 ft | 413 kts | 265° |
| 2026-04-26 11:38 | 55.45766 | 7.92713 | 38338 ft | 414 kts | 265° |
| 2026-04-26 11:39 | 55.45124 | 7.82673 | 38342 ft | 414 kts | 265° |
| 2026-04-26 11:39 | 55.44474 | 7.72625 | 38344 ft | 415 kts | 265° |
| 2026-04-26 11:40 | 55.43814 | 7.62573 | 38345 ft | 415 kts | 265° |
| 2026-04-26 11:40 | 55.43148 | 7.52550 | 38347 ft | 415 kts | 265° |
| 2026-04-26 11:42 | 55.40387 | 7.12271 | 38356 ft | 417 kts | 265° |
| 2026-04-26 11:43 | 55.39674 | 7.02187 | 38357 ft | 417 kts | 265° |
| 2026-04-26 11:43 | 55.38953 | 6.92109 | 38352 ft | 417 kts | 265° |
| 2026-04-26 11:44 | 55.38227 | 6.82066 | 38362 ft | 417 kts | 265° |
| 2026-04-26 11:44 | 55.37490 | 6.72001 | 38358 ft | 416 kts | 265° |
| 2026-04-26 11:45 | 55.36745 | 6.61950 | 38354 ft | 417 kts | 265° |
| 2026-04-26 11:45 | 55.35993 | 6.51907 | 38362 ft | 417 kts | 265° |
| 2026-04-26 11:46 | 55.35231 | 6.41844 | 38364 ft | 417 kts | 265° |
| 2026-04-26 11:46 | 55.34460 | 6.31771 | 38359 ft | 418 kts | 264° |
| 2026-04-26 11:47 | 55.33679 | 6.21694 | 38358 ft | 418 kts | 264° |
| 2026-04-26 11:47 | 55.32892 | 6.11637 | 38356 ft | 418 kts | 264° |
| 2026-04-26 11:48 | 55.32093 | 6.01556 | 38358 ft | 419 kts | 264° |
| 2026-04-26 11:48 | 55.31290 | 5.91514 | 38359 ft | 419 kts | 264° |
| 2026-04-26 11:49 | 55.30475 | 5.81438 | 38361 ft | 419 kts | 264° |
| 2026-04-26 11:49 | 55.29654 | 5.71396 | 38365 ft | 418 kts | 264° |
| 2026-04-26 11:50 | 55.28822 | 5.61331 | 38364 ft | 418 kts | 264° |
| 2026-04-26 11:50 | 55.27981 | 5.51241 | 38366 ft | 418 kts | 264° |
| 2026-04-26 11:51 | 55.27139 | 5.41249 | 38365 ft | 419 kts | 264° |
| 2026-04-26 11:51 | 55.26279 | 5.31152 | 38373 ft | 419 kts | 263° |
| 2026-04-26 11:52 | 55.25558 | 5.22762 | 38379 ft | 420 kts | 263° |
| 2026-04-26 11:52 | 55.24543 | 5.11069 | 38380 ft | 420 kts | 263° |
| 2026-04-26 11:53 | 55.23660 | 5.01002 | 38385 ft | 420 kts | 263° |
| 2026-04-26 11:54 | 55.22322 | 4.85928 | 38385 ft | 420 kts | 263° |
| 2026-04-26 11:54 | 55.21419 | 4.75879 | 38382 ft | 420 kts | 263° |
| 2026-04-26 11:55 | 55.20506 | 4.65831 | 38382 ft | 420 kts | 263° |
| 2026-04-26 11:55 | 55.19584 | 4.55763 | 38382 ft | 420 kts | 263° |
| 2026-04-26 11:56 | 55.18652 | 4.45677 | 38383 ft | 421 kts | 263° |
| 2026-04-26 11:56 | 55.17714 | 4.35617 | 38383 ft | 421 kts | 263° |
| 2026-04-26 11:57 | 55.16768 | 4.25565 | 38385 ft | 421 kts | 263° |
| 2026-04-26 11:57 | 55.15812 | 4.15539 | 38386 ft | 422 kts | 263° |
| 2026-04-26 11:58 | 55.14724 | 4.05460 | 38388 ft | 423 kts | 259° |
| 2026-04-26 11:58 | 55.12983 | 3.95694 | 38386 ft | 426 kts | 252° |
| 2026-04-26 11:59 | 55.10522 | 3.86296 | 38389 ft | 428 kts | 245° |
| 2026-04-26 11:59 | 55.07436 | 3.77465 | 38387 ft | 430 kts | 240° |
| 2026-04-26 12:00 | 55.04200 | 3.68743 | 38386 ft | 430 kts | 241° |
| 2026-04-26 12:00 | 55.00959 | 3.60039 | 38388 ft | 430 kts | 241° |
| 2026-04-26 12:01 | 54.97716 | 3.51357 | 38389 ft | 431 kts | 241° |
| 2026-04-26 12:01 | 54.94461 | 3.42668 | 38388 ft | 431 kts | 241° |
| 2026-04-26 12:02 | 54.91202 | 3.34000 | 38393 ft | 431 kts | 240° |
| 2026-04-26 12:02 | 54.87924 | 3.25312 | 38383 ft | 431 kts | 240° |
| 2026-04-26 12:03 | 54.84657 | 3.16683 | 38380 ft | 430 kts | 240° |
| 2026-04-26 12:03 | 54.81368 | 3.08028 | 38386 ft | 430 kts | 240° |
| 2026-04-26 12:04 | 54.78093 | 2.99435 | 38386 ft | 430 kts | 240° |
| 2026-04-26 12:04 | 54.74815 | 2.90869 | 38387 ft | 429 kts | 240° |
| 2026-04-26 12:05 | 54.71518 | 2.82280 | 38393 ft | 430 kts | 240° |
| 2026-04-26 12:05 | 54.68215 | 2.73704 | 38392 ft | 430 kts | 240° |
| 2026-04-26 12:06 | 54.64932 | 2.65212 | 38389 ft | 429 kts | 240° |
| 2026-04-26 12:06 | 54.61620 | 2.56677 | 38391 ft | 429 kts | 240° |
| 2026-04-26 12:07 | 54.58310 | 2.48173 | 38384 ft | 430 kts | 240° |
| 2026-04-26 12:07 | 54.54984 | 2.39653 | 38379 ft | 430 kts | 240° |
| 2026-04-26 12:08 | 54.51640 | 2.31119 | 38377 ft | 430 kts | 239° |
| 2026-04-26 12:08 | 54.48309 | 2.22650 | 38370 ft | 430 kts | 239° |
| 2026-04-26 12:09 | 54.44976 | 2.14204 | 38371 ft | 430 kts | 239° |
| 2026-04-26 12:09 | 54.41626 | 2.05747 | 38370 ft | 430 kts | 239° |
| 2026-04-26 12:10 | 54.38266 | 1.97290 | 38367 ft | 430 kts | 239° |
| 2026-04-26 12:10 | 54.34896 | 1.88834 | 38365 ft | 430 kts | 239° |
| 2026-04-26 12:11 | 54.31548 | 1.80461 | 38364 ft | 429 kts | 239° |
| 2026-04-26 12:11 | 54.28191 | 1.72094 | 38357 ft | 429 kts | 239° |
| 2026-04-26 12:12 | 54.24822 | 1.63729 | 38358 ft | 428 kts | 239° |
| 2026-04-26 12:12 | 54.21464 | 1.55417 | 38361 ft | 428 kts | 239° |
| 2026-04-26 12:13 | 54.18065 | 1.47033 | 38356 ft | 429 kts | 239° |
| 2026-04-26 12:13 | 54.14703 | 1.38767 | 38356 ft | 428 kts | 239° |
| 2026-04-26 12:14 | 54.11301 | 1.30435 | 38354 ft | 428 kts | 238° |
| 2026-04-26 12:14 | 54.07907 | 1.22140 | 38351 ft | 428 kts | 238° |
| 2026-04-26 12:15 | 54.04524 | 1.13904 | 38353 ft | 428 kts | 238° |
| 2026-04-26 12:15 | 54.01130 | 1.05667 | 38349 ft | 428 kts | 238° |
| 2026-04-26 12:16 | 53.97723 | 0.97422 | 38345 ft | 428 kts | 238° |
| 2026-04-26 12:16 | 53.94303 | 0.89182 | 38337 ft | 427 kts | 238° |
| 2026-04-26 12:17 | 53.90700 | 0.81236 | 38343 ft | 430 kts | 232° |
| 2026-04-26 12:17 | 53.86731 | 0.73668 | 38344 ft | 430 kts | 232° |
| 2026-04-26 12:18 | 53.82787 | 0.66176 | 38348 ft | 430 kts | 231° |
| 2026-04-26 12:18 | 53.80800 | 0.62409 | 38160 ft | 430 kts | 232° |
| 2026-04-26 12:18 | 53.78816 | 0.58658 | 37856 ft | 427 kts | 232° |
| 2026-04-26 12:18 | 53.76864 | 0.54973 | 37496 ft | 423 kts | 232° |
| 2026-04-26 12:19 | 53.74906 | 0.51284 | 37056 ft | 419 kts | 232° |
| 2026-04-26 12:19 | 53.72976 | 0.47649 | 36534 ft | 417 kts | 232° |
| 2026-04-26 12:19 | 53.71070 | 0.44064 | 36018 ft | 418 kts | 232° |
| 2026-04-26 12:19 | 53.69117 | 0.40394 | 35402 ft | 420 kts | 232° |
| 2026-04-26 12:20 | 53.67172 | 0.36746 | 34764 ft | 422 kts | 232° |
| 2026-04-26 12:20 | 53.65225 | 0.33099 | 33994 ft | 424 kts | 231° |
| 2026-04-26 12:20 | 53.63264 | 0.29432 | 33260 ft | 424 kts | 231° |
| 2026-04-26 12:20 | 53.61293 | 0.25751 | 32534 ft | 425 kts | 231° |
| 2026-04-26 12:21 | 53.59328 | 0.22091 | 31806 ft | 425 kts | 231° |
| 2026-04-26 12:21 | 53.57346 | 0.18405 | 31070 ft | 425 kts | 231° |
| 2026-04-26 12:21 | 53.55413 | 0.14670 | 30290 ft | 424 kts | 237° |
| 2026-04-26 12:21 | 53.53989 | 0.10427 | 29491 ft | 418 kts | 250° |
| 2026-04-26 12:22 | 53.53236 | 0.05817 | 28850 ft | 414 kts | 263° |
| 2026-04-26 12:22 | 53.53141 | 0.01010 | 28736 ft | 416 kts | 274° |
| 2026-04-26 12:22 | 53.53454 | -0.03808 | 28566 ft | 417 kts | 276° |
| 2026-04-26 12:22 | 53.53565 | -0.08634 | 28078 ft | 414 kts | 270° |
| 2026-04-26 12:23 | 53.53468 | -0.13454 | 27022 ft | 421 kts | 268° |
| 2026-04-26 12:23 | 53.53329 | -0.18370 | 25976 ft | 425 kts | 268° |
| 2026-04-26 12:23 | 53.53196 | -0.23311 | 25196 ft | 423 kts | 268° |
| 2026-04-26 12:23 | 53.53076 | -0.28190 | 24494 ft | 419 kts | 269° |
| 2026-04-26 12:24 | 53.52966 | -0.33055 | 23770 ft | 417 kts | 269° |
| 2026-04-26 12:24 | 53.52864 | -0.37842 | 23093 ft | 414 kts | 269° |
| 2026-04-26 12:24 | 53.52764 | -0.42670 | 22432 ft | 411 kts | 269° |
| 2026-04-26 12:25 | 53.52568 | -0.52157 | 21167 ft | 405 kts | 269° |
| 2026-04-26 12:25 | 53.52472 | -0.56821 | 20541 ft | 402 kts | 269° |
| 2026-04-26 12:25 | 53.52374 | -0.61481 | 19954 ft | 399 kts | 269° |
| 2026-04-26 12:25 | 53.52276 | -0.66087 | 19354 ft | 396 kts | 268° |
| 2026-04-26 12:26 | 53.52175 | -0.70707 | 18745 ft | 394 kts | 268° |
| 2026-04-26 12:26 | 53.52076 | -0.75221 | 18169 ft | 391 kts | 268° |
| 2026-04-26 12:26 | 53.51975 | -0.79739 | 17607 ft | 388 kts | 268° |
| 2026-04-26 12:26 | 53.51873 | -0.84160 | 17051 ft | 372 kts | 268° |
| 2026-04-26 12:27 | 53.51776 | -0.88395 | 16183 ft | 360 kts | 267° |
| 2026-04-26 12:27 | 53.51679 | -0.92517 | 15344 ft | 349 kts | 267° |
| 2026-04-26 12:27 | 53.51583 | -0.96523 | 14507 ft | 339 kts | 267° |
| 2026-04-26 12:27 | 53.51490 | -1.00400 | 13783 ft | 336 kts | 267° |
| 2026-04-26 12:28 | 53.51395 | -1.04261 | 13350 ft | 324 kts | 267° |
| 2026-04-26 12:28 | 53.51304 | -1.07948 | 12651 ft | 316 kts | 267° |
| 2026-04-26 12:28 | 53.51212 | -1.11543 | 12027 ft | 306 kts | 268° |
| 2026-04-26 12:28 | 53.51123 | -1.15067 | 11405 ft | 296 kts | 268° |
| 2026-04-26 12:29 | 53.51037 | -1.18413 | 10910 ft | 286 kts | 267° |
| 2026-04-26 12:29 | 53.50951 | -1.21744 | 10552 ft | 281 kts | 267° |
| 2026-04-26 12:29 | 53.50780 | -1.28231 | 10338 ft | 280 kts | 267° |
| 2026-04-26 12:30 | 53.50693 | -1.31481 | 10101 ft | 274 kts | 267° |
| 2026-04-26 12:30 | 53.50609 | -1.34597 | 9681 ft | 265 kts | 267° |
| 2026-04-26 12:30 | 53.50526 | -1.37617 | 9317 ft | 254 kts | 267° |
| 2026-04-26 12:31 | 53.50367 | -1.43338 | 8668 ft | 243 kts | 268° |
| 2026-04-26 12:31 | 53.50288 | -1.46158 | 8353 ft | 242 kts | 268° |
| 2026-04-26 12:31 | 53.50210 | -1.48950 | 8081 ft | 240 kts | 268° |
| 2026-04-26 12:31 | 53.50130 | -1.51743 | 7821 ft | 239 kts | 268° |
| 2026-04-26 12:32 | 53.50052 | -1.54488 | 7558 ft | 237 kts | 268° |
| 2026-04-26 12:32 | 53.49971 | -1.57253 | 7301 ft | 237 kts | 268° |
| 2026-04-26 12:32 | 53.49810 | -1.62760 | 6798 ft | 236 kts | 268° |
| 2026-04-26 12:33 | 53.49730 | -1.65483 | 6564 ft | 235 kts | 267° |
| 2026-04-26 12:33 | 53.49648 | -1.68223 | 6294 ft | 234 kts | 267° |
| 2026-04-26 12:33 | 53.49568 | -1.70927 | 6028 ft | 233 kts | 266° |
| 2026-04-26 12:33 | 53.49486 | -1.73644 | 5760 ft | 232 kts | 266° |
| 2026-04-26 12:34 | 53.49405 | -1.76315 | 5489 ft | 232 kts | 266° |
| 2026-04-26 12:34 | 53.49322 | -1.79017 | 5220 ft | 231 kts | 266° |
| 2026-04-26 12:34 | 53.49237 | -1.81714 | 4956 ft | 230 kts | 266° |
| 2026-04-26 12:34 | 53.49154 | -1.84364 | 4700 ft | 229 kts | 266° |
| 2026-04-26 12:35 | 53.49071 | -1.87002 | 4395 ft | 224 kts | 265° |
| 2026-04-26 12:35 | 53.48990 | -1.89563 | 4024 ft | 220 kts | 265° |
| 2026-04-26 12:35 | 53.48909 | -1.92096 | 3821 ft | 217 kts | 265° |
| 2026-04-26 12:35 | 53.48828 | -1.94588 | 3671 ft | 213 kts | 265° |
| 2026-04-26 12:36 | 53.48750 | -1.97043 | 3529 ft | 209 kts | 265° |
| 2026-04-26 12:36 | 53.48519 | -1.99404 | 3459 ft | 203 kts | 246° |
| 2026-04-26 12:36 | 53.47846 | -2.01467 | 3452 ft | 196 kts | 234° |
| 2026-04-26 12:36 | 53.47088 | -2.03236 | 3509 ft | 183 kts | 232° |
| 2026-04-26 12:37 | 53.46309 | -2.04930 | 3403 ft | 184 kts | 230° |
| 2026-04-26 12:37 | 53.45514 | -2.06590 | 3155 ft | 182 kts | 229° |
| 2026-04-26 12:37 | 53.44715 | -2.08233 | 2909 ft | 181 kts | 229° |
| 2026-04-26 12:37 | 53.43930 | -2.09847 | 2671 ft | 180 kts | 229° |
| 2026-04-26 12:38 | 53.43148 | -2.11456 | 2433 ft | 177 kts | 229° |
| 2026-04-26 12:38 | 53.42366 | -2.13066 | 2193 ft | 175 kts | 229° |
| 2026-04-26 12:38 | 53.41602 | -2.14640 | 1963 ft | 173 kts | 229° |
| 2026-04-26 12:38 | 53.40855 | -2.16179 | 1735 ft | 169 kts | 229° |
| 2026-04-26 12:39 | 53.40131 | -2.17675 | 1514 ft | 158 kts | 229° |
| 2026-04-26 12:39 | 53.39461 | -2.19057 | 1311 ft | 148 kts | 229° |
| 2026-04-26 12:39 | 53.38837 | -2.20346 | 1116 ft | 137 kts | 229° |
| 2026-04-26 12:39 | 53.38257 | -2.21545 | 930 ft | 130 kts | 228° |
| 2026-04-26 12:40 | 53.37687 | -2.22717 | 772 ft | 130 kts | 229° |
| 2026-04-26 12:40 | 53.37120 | -2.23883 | 590 ft | 131 kts | 229° |
| 2026-04-26 12:40 | 53.36554 | -2.25051 | 419 ft | 130 kts | 229° |
| 2026-04-26 12:40 | 53.35994 | -2.26234 | 277 ft | 130 kts | 229° |
| 2026-04-26 12:41 | 53.35457 | -2.27323 | 249 ft | 101 kts | 230° |
| 2026-04-26 12:41 | 53.35124 | -2.28012 | 235 ft | 54 kts | 232° |
| 2026-04-26 12:41 | 53.34971 | -2.28374 | 230 ft | 35 kts | 252° |
| 2026-04-26 12:41 | 53.34942 | -2.28614 | 225 ft | 17 kts | 261° |
| 2026-04-26 12:42 | 53.34985 | -2.28771 | 224 ft | 15 kts | 3° |
| 2026-04-26 12:42 | 53.35062 | -2.28667 | 227 ft | 14 kts | 50° |
| 2026-04-26 12:42 | 53.35123 | -2.28539 | 229 ft | 12 kts | 52° |
| 2026-04-26 12:42 | 53.35177 | -2.28420 | 231 ft | 13 kts | 52° |
| 2026-04-26 12:43 | 53.35234 | -2.28300 | 233 ft | 13 kts | 52° |
| 2026-04-26 12:43 | 53.35299 | -2.28177 | 235 ft | 17 kts | 46° |
| 2026-04-26 12:43 | 53.35396 | -2.28023 | 238 ft | 17 kts | 44° |
| 2026-04-26 12:43 | 53.35491 | -2.27919 | 238 ft | 15 kts | 12° |
| 2026-04-26 12:44 | 53.35592 | -2.27896 | 238 ft | 9 kts | 5° |
| 2026-04-26 12:44 | 53.35637 | -2.27893 | 238 ft | 0 kts | 360° |
| 2026-04-26 12:44 | 53.35676 | -2.27892 | 238 ft | 11 kts | 1° |
| 2026-04-26 12:44 | 53.35767 | -2.27877 | 238 ft | 14 kts | 5° |
| 2026-04-26 12:45 | 53.35881 | -2.27864 | 238 ft | 15 kts | 6° |
| 2026-04-26 12:45 | 53.35984 | -2.27842 | 238 ft | 15 kts | 6° |
| 2026-04-26 12:45 | 53.36067 | -2.27835 | 238 ft | 8 kts | 334° |
| 2026-04-26 12:45 | 53.36122 | -2.27940 | 236 ft | 15 kts | 300° |
| 2026-04-26 12:46 | 53.36181 | -2.28052 | 233 ft | 6 kts | 314° |
| 2026-04-26 12:46 | 53.36191 | -2.28069 | 233 ft | 4 kts | 313° |
| 2026-04-26 12:46 | 53.36202 | -2.28056 | 233 ft | 3 kts | 122° |
| 2026-04-26 12:46 | 53.36164 | -2.28010 | 235 ft | 6 kts | 141° |
| 2026-04-26 12:47 | 53.36114 | -2.27920 | 237 ft | 11 kts | 116° |
| 2026-04-26 12:47 | 53.36100 | -2.27847 | 238 ft | 0 kts | 106° |
| 2026-04-26 12:47 | 53.36098 | -2.27839 | 238 ft | 5 kts | 106° |
| 2026-04-26 12:47 | 53.36087 | -2.27760 | 240 ft | 6 kts | 102° |
| 2026-04-26 12:48 | 53.36079 | -2.27696 | 242 ft | 4 kts | 101° |
| 2026-04-26 12:48 | 53.36075 | -2.27663 | 243 ft | 1 kts | 101° |